Time;durP1;ratioP1;P1;durP2;ratioP2;P2;SDS_P1;SDS_P2;PMS_P1;PMS_P2;Temp;Humidity;BMP_temperature;BMP_pressure;BME280_temperature;BME280_humidity;BME280_pressure;Samples;Min_cycle;Max_cycle;Signal;HPM_P1;HPM_P2
2022/12/07 00:00:53;;;;;;;0.40;0.40;;;0.70;99.90;;;;;;5025638;28;20452;-90
2022/12/07 00:03:18;;;;;;;0.40;0.40;;;0.60;99.90;;;;;;5032061;28;20513;-90
2022/12/07 00:05:44;;;;;;;0.50;0.50;;;0.60;99.90;;;;;;5025466;28;20183;-89
2022/12/07 00:08:09;;;;;;;0.50;0.50;;;0.50;99.90;;;;;;5026881;28;20676;-90
2022/12/07 00:10:35;;;;;;;0.50;0.50;;;0.40;99.90;;;;;;5031628;28;20211;-89
2022/12/07 00:13:00;;;;;;;0.40;0.40;;;0.40;99.90;;;;;;5027597;28;20258;-89
2022/12/07 00:15:26;;;;;;;0.40;0.40;;;0.40;99.90;;;;;;5028187;28;20204;-90
2022/12/07 00:17:51;;;;;;;0.50;0.50;;;0.40;99.90;;;;;;5028505;28;20184;-90
2022/12/07 00:20:17;;;;;;;0.40;0.40;;;0.40;99.90;;;;;;5024497;28;20290;-90
2022/12/07 00:22:42;;;;;;;0.50;0.50;;;0.50;99.90;;;;;;5026444;28;20581;-90
2022/12/07 00:25:08;;;;;;;0.50;0.50;;;0.60;99.90;;;;;;5028476;28;20222;-89
2022/12/07 00:27:33;;;;;;;0.50;0.50;;;0.70;99.90;;;;;;5027295;28;20190;-90
2022/12/07 00:29:59;;;;;;;0.40;0.40;;;0.70;99.90;;;;;;5028051;28;20199;-90
2022/12/07 00:32:24;;;;;;;0.50;0.50;;;0.80;99.90;;;;;;5021974;28;20652;-90
2022/12/07 00:34:50;;;;;;;0.40;0.40;;;0.70;99.90;;;;;;5029217;28;20195;-90
2022/12/07 00:37:15;;;;;;;0.40;0.40;;;0.80;99.90;;;;;;5027742;28;20278;-89
2022/12/07 00:39:41;;;;;;;0.50;0.50;;;0.90;99.90;;;;;;5032666;28;20567;-90
2022/12/07 00:42:06;;;;;;;0.40;0.40;;;0.90;99.90;;;;;;5028659;28;20290;-91
2022/12/07 00:44:32;;;;;;;0.47;0.47;;;1.00;99.90;;;;;;5028727;28;20199;-88
2022/12/07 00:46:57;;;;;;;0.50;0.50;;;1.00;99.90;;;;;;5028059;28;20191;-89
2022/12/07 00:49:23;;;;;;;0.40;0.40;;;1.10;99.90;;;;;;5028004;28;20183;-88
2022/12/07 00:51:49;;;;;;;0.50;0.50;;;1.10;99.90;;;;;;5018150;28;20225;-88
2022/12/07 00:54:15;;;;;;;0.47;0.47;;;1.20;99.90;;;;;;5021886;28;20278;-89
2022/12/07 00:56:40;;;;;;;0.40;0.40;;;1.40;99.90;;;;;;5029577;28;20482;-89
2022/12/07 00:59:06;;;;;;;0.50;0.50;;;1.40;99.90;;;;;;5025437;28;20588;-89
2022/12/07 01:01:35;;;;;;;0.40;0.40;;;1.40;99.90;;;;;;5039523;28;20187;-89
2022/12/07 01:04:01;;;;;;;0.40;0.40;;;1.50;99.90;;;;;;5027319;28;20527;-89
2022/12/07 01:06:27;;;;;;;0.40;0.40;;;1.40;99.90;;;;;;5026478;28;20529;-90
2022/12/07 01:08:53;;;;;;;0.40;0.40;;;1.50;99.90;;;;;;5025612;28;21041;-89
2022/12/07 01:11:22;;;;;;;0.47;0.47;;;1.50;99.90;;;;;;5024914;28;20220;-88
2022/12/07 01:13:53;;;;;;;0.37;0.37;;;1.50;99.90;;;;;;5023090;28;20494;-88
2022/12/07 01:16:20;;;;;;;0.40;0.40;;;1.50;99.90;;;;;;5022846;28;20441;-89
2022/12/07 01:18:48;;;;;;;0.40;0.40;;;1.60;99.90;;;;;;5023102;28;20822;-90
2022/12/07 01:21:22;;;;;;;0.40;0.40;;;1.70;99.90;;;;;;5018567;28;20489;-87
2022/12/07 01:23:48;;;;;;;0.30;0.30;;;1.80;99.90;;;;;;5025204;28;20457;-88
2022/12/07 01:26:17;;;;;;;0.40;0.40;;;1.80;99.90;;;;;;5020429;28;20445;-89
2022/12/07 01:28:43;;;;;;;0.40;0.40;;;1.90;99.90;;;;;;5030983;28;20464;-88
2022/12/07 01:31:15;;;;;;;0.30;0.30;;;1.90;99.90;;;;;;5024001;28;20507;-89
2022/12/07 01:33:42;;;;;;;0.40;0.40;;;1.90;99.90;;;;;;5026331;28;20467;-88
2022/12/07 01:36:20;;;;;;;0.50;0.50;;;1.90;99.90;;;;;;5018226;28;20450;-89
2022/12/07 01:38:47;;;;;;;0.30;0.30;;;1.90;99.90;;;;;;5024273;28;20874;-89
2022/12/07 01:41:14;;;;;;;0.40;0.40;;;1.90;99.90;;;;;;5026456;28;20445;-88
2022/12/07 01:44:15;;;;;;;0.40;0.40;;;1.90;99.90;;;;;;5030358;28;20454;-87
2022/12/07 01:47:01;;;;;;;0.40;0.40;;;1.90;99.90;;;;;;5028119;28;20440;-88
2022/12/07 01:49:45;;;;;;;0.30;0.30;;;1.90;99.90;;;;;;5029930;28;20437;-89
2022/12/07 01:52:25;;;;;;;0.30;0.30;;;1.90;99.90;;;;;;5027913;28;20572;-89
2022/12/07 01:54:54;;;;;;;0.30;0.30;;;1.80;99.90;;;;;;5029688;28;20485;-88
2022/12/07 01:57:21;;;;;;;0.20;0.20;;;1.80;99.90;;;;;;5028024;28;20604;-89
2022/12/07 01:59:49;;;;;;;0.23;0.23;;;1.80;99.90;;;;;;5025773;28;20473;-88
2022/12/07 02:02:34;;;;;;;0.20;0.20;;;1.80;99.90;;;;;;5025231;28;20446;-89
2022/12/07 02:05:02;;;;;;;0.30;0.30;;;1.90;99.90;;;;;;5028949;28;20537;-89
2022/12/07 02:07:28;;;;;;;0.30;0.30;;;1.90;99.90;;;;;;5024068;28;20426;-87
2022/12/07 02:09:54;;;;;;;0.20;0.20;;;1.90;99.90;;;;;;5018839;28;20515;-88
2022/12/07 02:12:21;;;;;;;0.30;0.30;;;1.90;99.90;;;;;;5024376;28;20482;-87
2022/12/07 02:14:47;;;;;;;0.30;0.30;;;1.90;99.90;;;;;;5028291;28;20191;-88
2022/12/07 02:17:28;;;;;;;0.30;0.30;;;1.90;99.90;;;;;;5027335;28;20450;-88
2022/12/07 02:19:53;;;;;;;0.23;0.23;;;1.90;99.90;;;;;;5015802;28;20442;-88
2022/12/07 02:23:03;;;;;;;0.23;0.23;;;1.90;99.90;;;;;;5029692;28;20483;-88
2022/12/07 02:25:56;;;;;;;0.30;0.30;;;1.90;99.90;;;;;;5020257;28;20192;-88
2022/12/07 02:28:34;;;;;;;0.20;0.20;;;1.90;99.90;;;;;;5013990;28;20500;-87
2022/12/07 02:31:08;;;;;;;0.30;0.30;;;1.90;99.90;;;;;;5029188;28;20489;-87
2022/12/07 02:33:52;;;;;;;0.13;0.13;;;1.90;99.90;;;;;;5028463;28;20477;-87
2022/12/07 02:36:25;;;;;;;0.20;0.20;;;1.90;99.90;;;;;;5023023;28;20481;-88
2022/12/07 02:39:11;;;;;;;0.20;0.20;;;1.80;99.90;;;;;;5022544;28;20454;-87
2022/12/07 02:41:43;;;;;;;0.20;0.20;;;1.80;99.90;;;;;;5032267;28;20448;-88
2022/12/07 02:44:13;;;;;;;0.30;0.30;;;1.80;99.90;;;;;;5026979;28;21018;-88
2022/12/07 02:46:44;;;;;;;0.30;0.30;;;1.80;99.90;;;;;;5027908;28;20442;-88
2022/12/07 02:49:11;;;;;;;0.40;0.40;;;1.70;99.90;;;;;;5027729;28;20438;-87
2022/12/07 02:51:42;;;;;;;0.30;0.30;;;1.70;99.90;;;;;;5029772;28;20493;-89
2022/12/07 02:54:19;;;;;;;0.30;0.30;;;1.70;99.90;;;;;;5018100;28;20488;-88
2022/12/07 02:56:44;;;;;;;0.30;0.30;;;1.70;99.90;;;;;;5018415;28;20451;-88
2022/12/07 02:59:31;;;;;;;0.30;0.30;;;1.70;99.90;;;;;;5030932;28;20428;-88
2022/12/07 03:02:34;;;;;;;0.30;0.30;;;1.70;99.90;;;;;;5031353;28;20256;-87
2022/12/07 03:05:18;;;;;;;0.30;0.30;;;1.60;99.90;;;;;;5027055;28;20480;-88
2022/12/07 03:08:06;;;;;;;0.33;0.33;;;1.60;99.90;;;;;;5030859;28;20856;-87
2022/12/07 03:10:40;;;;;;;0.30;0.30;;;1.50;99.90;;;;;;5028590;28;20908;-89
2022/12/07 03:13:45;;;;;;;0.30;0.30;;;1.60;99.90;;;;;;5030642;28;20438;-88
2022/12/07 03:16:23;;;;;;;0.40;0.40;;;1.50;99.90;;;;;;5022646;28;20460;-88
2022/12/07 03:19:07;;;;;;;0.40;0.40;;;1.60;99.90;;;;;;5019875;28;20425;-89
2022/12/07 03:21:40;;;;;;;0.30;0.30;;;1.50;99.90;;;;;;5024203;28;20450;-87
2022/12/07 03:24:11;;;;;;;0.37;0.37;;;1.50;99.90;;;;;;5023499;28;20442;-88
2022/12/07 03:26:44;;;;;;;0.40;0.40;;;1.50;99.90;;;;;;5022040;28;20466;-89
2022/12/07 03:29:25;;;;;;;0.40;0.40;;;1.50;99.90;;;;;;5022307;28;20450;-89
2022/12/07 03:32:04;;;;;;;0.40;0.40;;;1.50;99.90;;;;;;5019911;28;20572;-88
2022/12/07 03:34:36;;;;;;;0.40;0.40;;;1.40;99.90;;;;;;5025406;28;20488;-88
2022/12/07 03:37:14;;;;;;;0.40;0.40;;;1.40;99.90;;;;;;5035830;28;20892;-89
2022/12/07 03:39:52;;;;;;;0.40;0.40;;;1.40;99.90;;;;;;5018131;28;20442;-88
2022/12/07 03:42:18;;;;;;;0.20;0.20;;;1.40;99.90;;;;;;5021316;28;20452;-88
2022/12/07 03:44:43;;;;;;;0.40;0.40;;;1.40;99.90;;;;;;5023904;28;20443;-88
2022/12/07 03:47:23;;;;;;;0.27;0.27;;;1.40;99.90;;;;;;5027880;28;20207;-89
2022/12/07 03:49:55;;;;;;;0.30;0.30;;;1.40;99.90;;;;;;5029170;28;20206;-89
2022/12/07 03:52:44;;;;;;;0.30;0.30;;;1.40;99.90;;;;;;5026519;28;20604;-89
2022/12/07 03:55:16;;;;;;;0.20;0.20;;;1.40;99.90;;;;;;5020266;28;20588;-88
2022/12/07 03:57:44;;;;;;;0.20;0.20;;;1.40;99.90;;;;;;5025502;28;20446;-87
2022/12/07 04:00:11;;;;;;;0.30;0.30;;;1.40;99.90;;;;;;5020799;28;20447;-89
2022/12/07 04:02:37;;;;;;;0.30;0.30;;;1.40;99.90;;;;;;5018462;28;20427;-88
2022/12/07 04:05:03;;;;;;;0.30;0.30;;;1.30;99.90;;;;;;5023628;28;20445;-88
2022/12/07 04:07:28;;;;;;;0.30;0.30;;;1.30;99.90;;;;;;5023246;28;20461;-89
2022/12/07 04:09:54;;;;;;;0.20;0.20;;;1.30;99.90;;;;;;5017118;28;20452;-89
2022/12/07 04:12:20;;;;;;;0.30;0.30;;;1.30;99.90;;;;;;5025130;28;20222;-89
2022/12/07 04:14:46;;;;;;;0.30;0.30;;;1.20;99.90;;;;;;5025855;28;20449;-89
2022/12/07 04:17:11;;;;;;;0.20;0.20;;;1.30;99.90;;;;;;5028682;28;20767;-89
2022/12/07 04:19:37;;;;;;;0.30;0.30;;;1.30;99.90;;;;;;5019235;28;20188;-88
2022/12/07 04:22:04;;;;;;;0.30;0.30;;;1.20;99.90;;;;;;5027141;28;20195;-89
2022/12/07 04:24:30;;;;;;;0.20;0.20;;;1.30;99.90;;;;;;5028256;28;20567;-88
2022/12/07 04:26:55;;;;;;;0.30;0.30;;;1.30;99.90;;;;;;5021650;28;20442;-89
2022/12/07 04:29:21;;;;;;;0.30;0.30;;;1.20;99.90;;;;;;5022833;28;20202;-89
2022/12/07 04:31:47;;;;;;;0.30;0.30;;;1.10;99.90;;;;;;5024688;28;20309;-89
2022/12/07 04:34:13;;;;;;;0.40;0.40;;;1.10;99.90;;;;;;5022930;28;20496;-89
2022/12/07 04:36:39;;;;;;;0.30;0.30;;;1.00;99.90;;;;;;5024281;28;20262;-88
2022/12/07 04:39:07;;;;;;;0.30;0.30;;;0.80;99.90;;;;;;5028305;28;20446;-89
2022/12/07 04:41:33;;;;;;;0.20;0.20;;;0.70;99.90;;;;;;5025107;28;20449;-90
2022/12/07 04:44:03;;;;;;;0.27;0.27;;;0.70;99.90;;;;;;5020407;28;20469;-89
2022/12/07 04:46:31;;;;;;;0.30;0.30;;;0.70;99.90;;;;;;5025502;28;20573;-89
2022/12/07 04:48:56;;;;;;;0.30;0.30;;;0.70;99.90;;;;;;5025209;28;20614;-89
2022/12/07 04:51:28;;;;;;;0.23;0.23;;;0.70;99.90;;;;;;5021841;28;20536;-87
2022/12/07 04:53:55;;;;;;;0.30;0.30;;;0.60;99.90;;;;;;5021473;28;20246;-88
2022/12/07 04:56:22;;;;;;;0.20;0.20;;;0.60;99.90;;;;;;5021524;28;20461;-88
2022/12/07 04:58:47;;;;;;;0.33;0.33;;;0.60;99.90;;;;;;5016075;28;20494;-87
2022/12/07 05:01:14;;;;;;;0.30;0.30;;;0.60;99.90;;;;;;5016264;28;20537;-88
2022/12/07 05:03:40;;;;;;;0.20;0.20;;;0.60;99.90;;;;;;5022696;28;20454;-89
2022/12/07 05:06:06;;;;;;;0.30;0.30;;;0.60;99.90;;;;;;5025810;28;20462;-88
2022/12/07 05:08:33;;;;;;;0.30;0.30;;;0.60;99.90;;;;;;5019925;28;20199;-88
2022/12/07 05:11:00;;;;;;;0.30;0.30;;;0.70;99.90;;;;;;5024892;28;20473;-87
2022/12/07 05:13:25;;;;;;;0.30;0.30;;;0.70;99.90;;;;;;5022413;28;21264;-88
2022/12/07 05:15:51;;;;;;;0.30;0.30;;;0.70;99.90;;;;;;5016549;28;20526;-89
2022/12/07 05:18:16;;;;;;;0.30;0.30;;;0.60;99.90;;;;;;5014274;28;20196;-88
2022/12/07 05:20:42;;;;;;;0.30;0.30;;;0.60;99.90;;;;;;5021727;28;20305;-88
2022/12/07 05:23:08;;;;;;;0.33;0.33;;;0.60;99.90;;;;;;5025035;28;20195;-88
2022/12/07 05:25:33;;;;;;;0.40;0.40;;;0.50;99.90;;;;;;5027166;28;20226;-90
2022/12/07 05:27:59;;;;;;;0.27;0.27;;;0.60;99.90;;;;;;5025091;28;20227;-88
2022/12/07 05:30:25;;;;;;;0.30;0.30;;;0.60;99.90;;;;;;5026108;28;20254;-89
2022/12/07 05:32:51;;;;;;;0.30;0.30;;;0.60;99.90;;;;;;5019260;28;20199;-90
2022/12/07 05:35:17;;;;;;;0.30;0.30;;;0.60;99.90;;;;;;5020046;28;20465;-89
2022/12/07 05:37:43;;;;;;;0.40;0.40;;;0.60;99.90;;;;;;5022391;28;20195;-89
2022/12/07 05:40:10;;;;;;;0.30;0.30;;;0.50;99.90;;;;;;5022655;28;20457;-87
2022/12/07 05:42:35;;;;;;;0.40;0.40;;;0.50;99.90;;;;;;5024978;28;20457;-86
2022/12/07 05:45:01;;;;;;;0.30;0.30;;;0.60;99.90;;;;;;5022708;28;20454;-89
2022/12/07 05:47:27;;;;;;;0.40;0.40;;;0.60;99.90;;;;;;5029854;28;20195;-91
2022/12/07 05:49:52;;;;;;;0.30;0.30;;;0.50;99.90;;;;;;5025232;28;20208;-90
2022/12/07 05:52:18;;;;;;;0.40;0.40;;;0.40;99.90;;;;;;5013469;28;20572;-89
2022/12/07 05:54:43;;;;;;;0.20;0.20;;;0.50;99.90;;;;;;5019885;28;20228;-90
2022/12/07 05:57:09;;;;;;;0.30;0.30;;;0.40;99.90;;;;;;5018152;28;20261;-90
2022/12/07 05:59:35;;;;;;;0.30;0.30;;;0.40;99.90;;;;;;5019289;28;20186;-89
2022/12/07 06:02:03;;;;;;;0.40;0.40;;;0.40;99.90;;;;;;5017763;28;20210;-90
2022/12/07 06:04:32;;;;;;;0.40;0.40;;;0.30;99.90;;;;;;5021563;28;20203;-89
2022/12/07 06:06:58;;;;;;;0.37;0.37;;;0.40;99.90;;;;;;5020603;28;20504;-90
2022/12/07 06:09:25;;;;;;;0.30;0.30;;;0.40;99.90;;;;;;5026490;28;20450;-91
2022/12/07 06:14:36;;;;;;;0.40;0.40;;;0.40;99.90;;;;;;5027194;28;20432;-88
2022/12/07 06:17:01;;;;;;;0.40;0.40;;;0.30;99.90;;;;;;5025980;28;20533;-89
2022/12/07 06:19:27;;;;;;;0.40;0.40;;;0.40;99.90;;;;;;5030043;28;20191;-89
2022/12/07 06:21:53;;;;;;;0.33;0.33;;;0.40;99.90;;;;;;5018204;28;20192;-89
2022/12/07 06:24:19;;;;;;;0.40;0.40;;;0.30;99.90;;;;;;5024279;28;20194;-89
2022/12/07 06:26:45;;;;;;;0.40;0.40;;;0.40;99.90;;;;;;5029253;28;20442;-90
2022/12/07 06:29:11;;;;;;;0.40;0.40;;;0.30;99.90;;;;;;5027766;28;20187;-89
2022/12/07 06:31:37;;;;;;;0.50;0.50;;;0.40;99.90;;;;;;5022729;28;20231;-92
2022/12/07 06:34:05;;;;;;;0.50;0.50;;;0.40;99.90;;;;;;5039511;28;20453;-90
2022/12/07 06:36:32;;;;;;;0.30;0.30;;;0.40;99.90;;;;;;5025287;28;20441;-90
2022/12/07 06:38:58;;;;;;;0.40;0.40;;;0.50;99.90;;;;;;5021353;28;20470;-90
2022/12/07 06:41:24;;;;;;;0.40;0.40;;;0.50;99.90;;;;;;5026555;28;20485;-89
2022/12/07 06:43:49;;;;;;;0.30;0.30;;;0.40;99.90;;;;;;5026665;28;20229;-88
2022/12/07 06:46:16;;;;;;;0.30;0.30;;;0.40;99.90;;;;;;5022111;28;21804;-91
2022/12/07 06:48:42;;;;;;;0.43;0.43;;;0.40;99.90;;;;;;5036414;28;20636;-89
2022/12/07 06:51:08;;;;;;;0.33;0.33;;;0.40;99.90;;;;;;5026765;28;20539;-87
2022/12/07 06:53:34;;;;;;;0.30;0.30;;;0.50;99.90;;;;;;5021634;28;20470;-86
2022/12/07 06:56:00;;;;;;;0.40;0.40;;;0.50;99.90;;;;;;5027051;28;20548;-87
2022/12/07 06:58:25;;;;;;;0.50;0.50;;;0.50;99.90;;;;;;5027236;28;20438;-89
2022/12/07 07:00:51;;;;;;;0.40;0.40;;;0.40;99.90;;;;;;5027862;28;20757;-89
2022/12/07 07:03:16;;;;;;;0.30;0.30;;;0.50;99.90;;;;;;5026716;28;20723;-89
2022/12/07 07:05:43;;;;;;;0.40;0.40;;;0.40;99.90;;;;;;5021325;28;20202;-90
2022/12/07 07:08:09;;;;;;;0.40;0.40;;;0.40;99.90;;;;;;5027925;28;20281;-87
2022/12/07 07:10:36;;;;;;;0.40;0.40;;;0.40;99.90;;;;;;5028821;28;20454;-90
2022/12/07 07:13:03;;;;;;;0.40;0.40;;;0.40;99.90;;;;;;5027495;28;20888;-89
2022/12/07 07:15:29;;;;;;;0.40;0.40;;;0.40;99.90;;;;;;5023216;28;20529;-89
2022/12/07 07:17:54;;;;;;;0.47;0.47;;;0.30;99.90;;;;;;5027213;28;20450;-88
2022/12/07 07:20:20;;;;;;;0.33;0.33;;;0.40;99.90;;;;;;5032025;28;20223;-88
2022/12/07 07:22:45;;;;;;;0.50;0.50;;;0.40;99.90;;;;;;5029517;28;20643;-88
2022/12/07 07:25:11;;;;;;;0.40;0.40;;;0.40;99.90;;;;;;5029529;28;20187;-88
2022/12/07 07:27:36;;;;;;;0.50;0.50;;;0.40;99.90;;;;;;5028346;28;20882;-88
2022/12/07 07:30:03;;;;;;;0.40;0.40;;;0.40;99.90;;;;;;5031352;28;20675;-88
2022/12/07 07:32:28;;;;;;;0.50;0.50;;;0.40;99.90;;;;;;5030849;28;20293;-88
2022/12/07 07:34:54;;;;;;;0.50;0.50;;;0.40;99.90;;;;;;5029658;28;20488;-88
2022/12/07 07:37:19;;;;;;;0.43;0.43;;;0.50;99.90;;;;;;5025833;28;20189;-88
2022/12/07 07:39:45;;;;;;;0.40;0.40;;;0.50;99.90;;;;;;5027239;28;20214;-88
2022/12/07 07:42:10;;;;;;;0.57;0.57;;;0.50;99.90;;;;;;5028975;28;20265;-89
2022/12/07 07:44:36;;;;;;;0.50;0.50;;;0.50;99.90;;;;;;5028005;28;20183;-88
2022/12/07 07:47:02;;;;;;;0.50;0.50;;;0.50;99.90;;;;;;5029112;28;20666;-89
2022/12/07 07:49:27;;;;;;;0.50;0.50;;;0.40;99.90;;;;;;5026384;28;20199;-89
2022/12/07 07:51:53;;;;;;;0.47;0.47;;;0.50;99.90;;;;;;5023172;28;20489;-90
2022/12/07 07:54:18;;;;;;;0.50;0.50;;;0.50;99.90;;;;;;5025641;28;20635;-89
2022/12/07 07:56:44;;;;;;;0.47;0.47;;;0.50;99.90;;;;;;5025053;28;20195;-86
2022/12/07 07:59:09;;;;;;;0.50;0.50;;;0.50;99.90;;;;;;5027170;28;20693;-87
2022/12/07 08:01:35;;;;;;;0.40;0.40;;;0.50;99.90;;;;;;5025761;28;20188;-87
2022/12/07 08:04:02;;;;;;;0.50;0.50;;;0.50;99.90;;;;;;5024704;28;20663;-87
2022/12/07 08:06:27;;;;;;;0.50;0.50;;;0.50;99.90;;;;;;5029378;28;20202;-87
2022/12/07 08:08:53;;;;;;;0.50;0.50;;;0.50;99.90;;;;;;5027573;28;20459;-87
2022/12/07 08:11:18;;;;;;;0.40;0.40;;;0.60;99.90;;;;;;5023060;28;20227;-88
2022/12/07 08:13:47;;;;;;;0.40;0.40;;;0.70;99.90;;;;;;5025751;28;20198;-85
2022/12/07 08:16:12;;;;;;;0.47;0.47;;;0.70;99.90;;;;;;5026143;28;20323;-92
2022/12/07 08:18:39;;;;;;;0.40;0.40;;;0.70;99.90;;;;;;5031461;28;20539;-90
2022/12/07 08:21:06;;;;;;;0.40;0.40;;;0.70;99.90;;;;;;5030127;28;20270;-88
2022/12/07 08:23:33;;;;;;;0.50;0.50;;;0.60;99.90;;;;;;5022588;28;20463;-89
2022/12/07 08:26:10;;;;;;;0.47;0.47;;;0.60;99.90;;;;;;5023622;28;20446;-91
2022/12/07 08:28:36;;;;;;;0.43;0.43;;;0.60;99.90;;;;;;5029016;28;20600;-89
2022/12/07 08:31:07;;;;;;;0.40;0.40;;;0.70;99.90;;;;;;5029273;28;20569;-91
2022/12/07 08:33:33;;;;;;;0.50;0.50;;;0.70;99.90;;;;;;5028622;28;20458;-92
2022/12/07 08:36:03;;;;;;;0.40;0.40;;;0.70;99.90;;;;;;5026994;28;20599;-92
2022/12/07 08:38:29;;;;;;;0.50;0.50;;;0.70;99.90;;;;;;5023389;28;20255;-91
2022/12/07 08:40:55;;;;;;;0.30;0.30;;;0.80;99.90;;;;;;5025656;28;20492;-92
2022/12/07 08:43:22;;;;;;;0.40;0.40;;;0.80;99.90;;;;;;5018151;28;20287;-92
2022/12/07 08:45:53;;;;;;;0.50;0.50;;;0.80;99.90;;;;;;5024681;28;20446;-92
2022/12/07 08:48:21;;;;;;;0.40;0.40;;;0.90;99.90;;;;;;5027208;28;20446;-89
2022/12/07 08:50:48;;;;;;;0.50;0.50;;;0.90;99.90;;;;;;5028691;28;20480;-89
2022/12/07 08:53:13;;;;;;;0.50;0.50;;;0.90;99.90;;;;;;5027207;28;20966;-89
2022/12/07 08:55:39;;;;;;;0.40;0.40;;;0.90;99.90;;;;;;5028594;28;20507;-89
2022/12/07 08:58:04;;;;;;;0.50;0.50;;;0.90;99.90;;;;;;5030866;28;20191;-89
2022/12/07 09:00:30;;;;;;;0.40;0.40;;;1.00;99.90;;;;;;5028605;28;20176;-89
2022/12/07 09:02:55;;;;;;;0.40;0.40;;;1.00;99.90;;;;;;5029799;28;20195;-90
2022/12/07 09:05:21;;;;;;;0.40;0.40;;;1.00;99.90;;;;;;5023907;28;20278;-89
2022/12/07 09:07:51;;;;;;;0.47;0.47;;;1.10;99.90;;;;;;5026386;28;20788;-89
2022/12/07 09:10:16;;;;;;;0.50;0.50;;;1.10;99.90;;;;;;5029567;28;20194;-89
2022/12/07 09:12:42;;;;;;;0.40;0.40;;;1.10;99.90;;;;;;5029453;28;20462;-89
2022/12/07 09:15:08;;;;;;;0.40;0.40;;;1.10;99.90;;;;;;5028656;28;20252;-89
2022/12/07 09:17:33;;;;;;;0.43;0.43;;;1.20;99.90;;;;;;5019500;28;20678;-90
2022/12/07 09:20:00;;;;;;;0.50;0.50;;;1.20;99.90;;;;;;5028205;28;20454;-89
2022/12/07 09:22:29;;;;;;;0.40;0.40;;;1.20;99.90;;;;;;5028235;28;20191;-89
2022/12/07 09:24:54;;;;;;;0.40;0.40;;;1.30;99.90;;;;;;5028660;28;20449;-90
2022/12/07 09:27:20;;;;;;;0.50;0.50;;;1.30;99.90;;;;;;5023943;28;20466;-90
2022/12/07 09:29:45;;;;;;;0.40;0.40;;;1.30;99.90;;;;;;5020410;28;20206;-91
2022/12/07 09:32:11;;;;;;;0.40;0.40;;;1.30;99.90;;;;;;5009678;28;20893;-90
2022/12/07 09:34:37;;;;;;;0.40;0.40;;;1.30;99.90;;;;;;5022696;28;20902;-91
2022/12/07 09:37:03;;;;;;;0.40;0.40;;;1.30;99.90;;;;;;5026297;28;20223;-90
2022/12/07 09:39:29;;;;;;;0.40;0.40;;;1.30;99.90;;;;;;5026416;28;20562;-91
2022/12/07 09:41:54;;;;;;;0.30;0.30;;;1.40;99.90;;;;;;5028986;28;20195;-91
2022/12/07 09:44:26;;;;;;;0.50;0.50;;;1.40;99.90;;;;;;5028068;28;20188;-91
2022/12/07 09:46:52;;;;;;;0.30;0.30;;;1.50;99.90;;;;;;5027138;28;20218;-91
2022/12/07 09:49:20;;;;;;;0.40;0.40;;;1.40;99.90;;;;;;5028301;28;20445;-90
2022/12/07 09:51:47;;;;;;;0.50;0.50;;;1.40;99.90;;;;;;5025029;28;20572;-91
2022/12/07 09:54:14;;;;;;;0.40;0.40;;;1.50;99.90;;;;;;5027073;28;20500;-91
2022/12/07 09:56:40;;;;;;;0.30;0.30;;;1.50;99.90;;;;;;5027414;28;20949;-90
2022/12/07 09:59:11;;;;;;;0.40;0.40;;;1.50;99.90;;;;;;5027310;28;20438;-92
2022/12/07 10:01:39;;;;;;;0.30;0.30;;;1.50;99.90;;;;;;5025812;28;20187;-89
2022/12/07 10:04:17;;;;;;;0.40;0.40;;;1.50;99.90;;;;;;5024357;28;20804;-90
2022/12/07 10:06:43;;;;;;;0.30;0.30;;;1.50;99.90;;;;;;5022820;28;20484;-88
2022/12/07 10:09:13;;;;;;;0.40;0.40;;;1.60;99.90;;;;;;5015902;28;21469;-88
2022/12/07 10:12:17;;;;;;;0.40;0.40;;;1.60;99.90;;;;;;5027714;28;20513;-89
2022/12/07 10:15:06;;;;;;;0.30;0.30;;;1.60;99.90;;;;;;5008003;28;20443;-89
2022/12/07 10:17:38;;;;;;;0.40;0.40;;;1.60;99.90;;;;;;4982074;28;20447;-89
2022/12/07 10:20:19;;;;;;;0.40;0.40;;;1.70;99.90;;;;;;5018058;28;20457;-89
2022/12/07 10:23:00;;;;;;;0.30;0.30;;;1.70;99.90;;;;;;5025889;28;20454;-90
2022/12/07 10:25:31;;;;;;;0.47;0.47;;;1.70;99.90;;;;;;5026844;28;20447;-88
2022/12/07 10:28:07;;;;;;;0.50;0.50;;;1.70;99.90;;;;;;5018607;28;20454;-89
2022/12/07 10:30:45;;;;;;;0.40;0.40;;;1.70;99.90;;;;;;5028149;28;20976;-90
2022/12/07 10:33:29;;;;;;;0.47;0.47;;;1.70;99.90;;;;;;5024714;28;20445;-89
2022/12/07 10:35:54;;;;;;;0.40;0.40;;;1.80;99.90;;;;;;5023089;28;21083;-88
2022/12/07 10:38:20;;;;;;;0.50;0.50;;;1.80;99.90;;;;;;5025950;28;20484;-89
2022/12/07 10:40:46;;;;;;;0.40;0.40;;;1.90;99.90;;;;;;5022422;28;20192;-89
2022/12/07 10:43:11;;;;;;;0.50;0.50;;;1.90;99.90;;;;;;5025729;28;20196;-89
2022/12/07 10:45:56;;;;;;;0.50;0.50;;;1.90;99.90;;;;;;5018047;28;20184;-89
2022/12/07 10:48:30;;;;;;;0.30;0.30;;;2.00;99.90;;;;;;5040598;28;20192;-90
2022/12/07 10:51:09;;;;;;;0.40;0.40;;;2.10;99.90;;;;;;5025027;28;20476;-89
2022/12/07 10:53:44;;;;;;;0.40;0.40;;;2.10;99.90;;;;;;5029558;28;20496;-88
2022/12/07 10:56:47;;;;;;;0.30;0.30;;;2.20;99.90;;;;;;5029345;28;20437;-88
2022/12/07 10:59:15;;;;;;;0.40;0.40;;;2.30;99.90;;;;;;5026112;28;20537;-89
2022/12/07 11:01:59;;;;;;;0.40;0.40;;;2.30;99.90;;;;;;5026747;28;20493;-88
2022/12/07 11:05:06;;;;;;;0.30;0.30;;;2.30;99.90;;;;;;5028996;28;20441;-88
2022/12/07 11:08:23;;;;;;;0.40;0.40;;;2.50;99.90;;;;;;5024865;28;20957;-87
2022/12/07 11:11:11;;;;;;;0.40;0.40;;;2.60;99.90;;;;;;5007335;28;20474;-86
2022/12/07 11:13:45;;;;;;;0.40;0.40;;;2.60;99.90;;;;;;5020170;28;20455;-86
2022/12/07 11:16:34;;;;;;;0.40;0.40;;;2.80;99.90;;;;;;5019999;28;20491;-85
2022/12/07 11:19:32;;;;;;;0.40;0.40;;;3.00;99.90;;;;;;5025989;28;20435;-87
2022/12/07 11:22:03;;;;;;;0.30;0.30;;;3.00;99.90;;;;;;5026761;28;20434;-86
2022/12/07 11:24:44;;;;;;;0.40;0.40;;;3.00;99.90;;;;;;5029711;28;20449;-83
2022/12/07 11:27:31;;;;;;;0.37;0.37;;;2.90;99.90;;;;;;5024535;28;20439;-82
2022/12/07 11:30:09;;;;;;;0.40;0.40;;;2.80;99.90;;;;;;5027246;28;20446;-83
2022/12/07 11:33:03;;;;;;;0.40;0.40;;;2.80;99.90;;;;;;5015173;28;20479;-82
2022/12/07 11:35:54;;;;;;;0.23;0.23;;;2.90;99.90;;;;;;5022255;28;20447;-81
2022/12/07 11:38:33;;;;;;;0.30;0.30;;;3.00;99.90;;;;;;5022948;28;20897;-84
2022/12/07 11:41:12;;;;;;;0.30;0.30;;;3.00;99.90;;;;;;5013052;28;21289;-83
2022/12/07 11:43:53;;;;;;;0.40;0.40;;;3.10;99.90;;;;;;5019824;28;21286;-82
2022/12/07 11:46:24;;;;;;;0.40;0.40;;;3.40;99.90;;;;;;5027316;28;20445;-82
2022/12/07 11:49:01;;;;;;;0.30;0.30;;;3.30;99.90;;;;;;5029826;28;20986;-83
2022/12/07 11:51:31;;;;;;;0.40;0.40;;;3.20;99.90;;;;;;5026822;28;21024;-83
2022/12/07 11:54:11;;;;;;;0.33;0.33;;;3.10;99.90;;;;;;5030229;28;20478;-83
2022/12/07 11:56:37;;;;;;;0.30;0.30;;;3.00;99.90;;;;;;5021375;28;20465;-82
2022/12/07 11:59:14;;;;;;;0.40;0.40;;;3.10;99.90;;;;;;5025489;28;20454;-82
2022/12/07 12:02:06;;;;;;;0.30;0.30;;;3.10;99.90;;;;;;5031020;28;20191;-82
2022/12/07 12:04:58;;;;;;;0.40;0.40;;;3.10;99.90;;;;;;5008058;28;20550;-82
2022/12/07 12:07:26;;;;;;;0.40;0.40;;;3.10;99.90;;;;;;5023356;28;21047;-82
2022/12/07 12:10:06;;;;;;;0.20;0.20;;;3.20;99.90;;;;;;5023521;28;20476;-83
2022/12/07 12:12:48;;;;;;;0.40;0.40;;;3.20;99.90;;;;;;5029670;28;21577;-82
2022/12/07 12:15:19;;;;;;;0.30;0.30;;;3.30;99.90;;;;;;5026317;28;20441;-83
2022/12/07 12:17:47;;;;;;;0.37;0.37;;;3.10;99.90;;;;;;5029556;28;20437;-83
2022/12/07 12:20:20;;;;;;;0.30;0.30;;;3.00;99.90;;;;;;5030483;28;20449;-83
2022/12/07 12:23:08;;;;;;;0.23;0.23;;;3.10;99.90;;;;;;5028300;28;20584;-83
2022/12/07 12:25:47;;;;;;;0.27;0.27;;;3.10;99.90;;;;;;5029683;28;20487;-83
2022/12/07 12:28:29;;;;;;;0.30;0.30;;;3.10;99.90;;;;;;5029470;28;20941;-82
2022/12/07 12:31:21;;;;;;;0.37;0.37;;;3.00;99.90;;;;;;5028011;28;20497;-81
2022/12/07 12:33:49;;;;;;;0.40;0.40;;;3.00;99.90;;;;;;5011857;28;20487;-81
2022/12/07 12:36:15;;;;;;;0.40;0.40;;;3.00;99.90;;;;;;5032125;28;20438;-81
2022/12/07 12:38:49;;;;;;;0.40;0.40;;;3.00;99.90;;;;;;5030119;28;20434;-83
2022/12/07 12:42:21;;;;;;;0.30;0.30;;;3.00;99.90;;;;;;5029119;28;20199;-81
2022/12/07 12:44:22;;;;;;;0.30;0.30;;;3.10;99.90;;;;;;5018039;28;20447;-81
2022/12/07 12:46:57;;;;;;;0.30;0.30;;;3.10;99.90;;;;;;5026304;28;20793;-83
2022/12/07 12:49:22;;;;;;;0.30;0.30;;;3.20;99.90;;;;;;5029460;28;20541;-81
2022/12/07 12:51:52;;;;;;;0.37;0.37;;;3.20;99.90;;;;;;5028050;28;20585;-82
2022/12/07 12:54:32;;;;;;;0.30;0.30;;;3.20;99.90;;;;;;5036414;28;20258;-80
2022/12/07 12:57:24;;;;;;;0.40;0.40;;;3.20;99.90;;;;;;5026242;28;20512;-81
2022/12/07 12:59:52;;;;;;;0.40;0.40;;;3.10;99.90;;;;;;5027135;28;20446;-81
2022/12/07 13:02:48;;;;;;;0.40;0.40;;;3.00;99.90;;;;;;5018954;28;20992;-83
2022/12/07 13:05:13;;;;;;;0.30;0.30;;;2.90;99.90;;;;;;5026512;28;20961;-83
2022/12/07 13:07:52;;;;;;;0.30;0.30;;;3.10;99.90;;;;;;5029665;28;20464;-83
2022/12/07 13:10:28;;;;;;;0.40;0.40;;;2.90;99.90;;;;;;5028828;28;20199;-84
2022/12/07 13:13:14;;;;;;;0.30;0.30;;;2.90;99.90;;;;;;5025321;28;20465;-83
2022/12/07 13:15:49;;;;;;;0.30;0.30;;;3.00;99.90;;;;;;5026430;28;20437;-83
2022/12/07 13:18:30;;;;;;;0.30;0.30;;;2.80;99.90;;;;;;5027648;28;20438;-83
2022/12/07 13:21:08;;;;;;;0.30;0.30;;;2.80;99.90;;;;;;5021631;28;20540;-82